Aviation Digital Data Service (ADDS)

Output produced by TAFs form (1150 UTC 27 May 2017)
found at http://www.aviationweather.gov/adds/tafs/
 
METAR text: ROYN 271100Z AUTO 04021KT 9999 NSC 25/19 Q1011
Conditions at: ROYN (YONAGUNI AIRPORT, JP) observed 1100 UTC 27 May 2017
Temperature: 25.0°C (77°F)
Dewpoint: 19.0°C (66°F) [RH = 69%]
Pressure (altimeter): 29.85 inches Hg (1011.0 mb)
Winds: from the NE (40 degrees) at 24 MPH (21 knots; 10.9 m/s)
Visibility: 6 or more miles (10+ km)
Ceiling: at least 12,000 feet AGL
Clouds: sky clear below 12,000 feet AGL
Weather: no significant weather observed at this time